createdAt,value
2018-05-11T00:00:35.313Z,82.93
2018-05-11T00:03:03.240Z,83.19
2018-05-11T00:05:31.352Z,83.78
2018-05-11T00:07:59.236Z,83.45
2018-05-11T00:10:27.209Z,84.03
2018-05-11T00:12:55.129Z,84.74
2018-05-11T00:15:23.097Z,84.99
2018-05-11T00:17:51.029Z,85.31
2018-05-11T00:20:19.501Z,85.78
2018-05-11T00:22:47.469Z,86.00
2018-05-11T00:25:15.406Z,85.77
2018-05-11T00:27:43.382Z,85.56
2018-05-11T00:30:11.294Z,86.06
2018-05-11T00:32:39.310Z,86.44
2018-05-11T00:35:07.361Z,86.45
2018-05-11T00:37:35.300Z,86.56
2018-05-11T00:40:03.323Z,86.45
2018-05-11T00:42:31.261Z,86.59
2018-05-11T00:44:59.302Z,86.51
2018-05-11T00:47:27.300Z,87.09
2018-05-11T00:49:55.320Z,86.73
2018-05-11T00:52:23.303Z,86.88
2018-05-11T00:54:51.367Z,86.99
2018-05-11T00:57:19.373Z,87.35
2018-05-11T00:59:47.356Z,87.77
2018-05-11T01:02:15.305Z,86.98
2018-05-11T01:04:43.272Z,86.92
2018-05-11T01:07:11.217Z,86.64
2018-05-11T01:09:39.163Z,86.96
2018-05-11T01:12:07.151Z,87.89
2018-05-11T01:14:35.197Z,88.06
2018-05-11T01:17:03.273Z,87.86
2018-05-11T01:19:31.558Z,87.48
2018-05-11T01:21:59.466Z,87.85
2018-05-11T01:24:27.385Z,87.76
2018-05-11T01:26:55.329Z,88.47
2018-05-11T01:29:23.662Z,88.15
2018-05-11T01:31:51.649Z,88.37
2018-05-11T01:34:19.591Z,88.49
2018-05-11T01:36:47.540Z,88.77
2018-05-11T01:39:15.570Z,88.35
2018-05-11T01:41:43.530Z,88.29
2018-05-11T01:44:11.498Z,88.70
2018-05-11T01:46:39.413Z,88.76
2018-05-11T01:49:07.655Z,88.98
2018-05-11T01:51:35.619Z,89.08
2018-05-11T01:54:03.580Z,88.71
2018-05-11T01:56:31.512Z,88.92
2018-05-11T01:58:59.579Z,88.86
2018-05-11T02:01:27.537Z,88.37
2018-05-11T02:03:55.484Z,88.63
2018-05-11T02:06:23.503Z,88.83
2018-05-11T02:08:51.624Z,88.23
2018-05-11T02:11:19.532Z,88.50
2018-05-11T02:13:47.490Z,88.67
2018-05-11T02:16:15.473Z,88.32
2018-05-11T02:18:43.438Z,88.15
2018-05-11T02:21:11.344Z,87.72
2018-05-11T02:23:39.268Z,88.46
2018-05-11T02:26:07.218Z,88.80
2018-05-11T02:28:35.124Z,88.72
2018-05-11T02:31:03.051Z,88.63
2018-05-11T02:33:30.976Z,89.36
2018-05-11T02:35:58.931Z,88.91
2018-05-11T02:38:26.881Z,88.38
2018-05-11T02:40:55.256Z,88.82
2018-05-11T02:43:23.187Z,88.22
2018-05-11T02:45:51.175Z,87.98
2018-05-11T02:48:19.105Z,87.52
2018-05-11T02:50:47.017Z,87.57
2018-05-11T02:53:14.976Z,87.66
2018-05-11T02:55:42.924Z,88.09
2018-05-11T02:58:11.047Z,87.54
2018-05-11T03:00:39.088Z,87.73
2018-05-11T03:03:07.028Z,88.38
2018-05-11T03:05:34.945Z,88.32
2018-05-11T03:08:02.872Z,88.41
2018-05-11T03:10:30.915Z,88.46
2018-05-11T03:12:59.864Z,89.10
2018-05-11T03:15:27.887Z,88.18
2018-05-11T03:17:55.845Z,88.07
2018-05-11T03:20:23.808Z,87.39
2018-05-11T03:22:51.912Z,87.87
2018-05-11T03:25:20.969Z,88.08
2018-05-11T03:27:48.958Z,88.49
2018-05-11T03:30:17.455Z,88.34
2018-05-11T03:32:45.369Z,88.22
2018-05-11T03:35:13.299Z,88.91
2018-05-11T03:37:41.238Z,88.73
2018-05-11T03:40:09.229Z,88.40
2018-05-11T03:42:37.179Z,88.75
2018-05-11T03:45:05.105Z,88.73
2018-05-11T03:47:33.013Z,87.73
2018-05-11T03:50:01.053Z,87.51
2018-05-11T03:52:28.995Z,87.81
2018-05-11T03:54:56.923Z,88.26
2018-05-11T03:57:25.169Z,88.22
2018-05-11T03:59:53.132Z,88.18
2018-05-11T04:02:32.998Z,87.67
2018-05-11T04:05:12.752Z,87.94
2018-05-11T04:07:52.392Z,88.05
2018-05-11T04:10:20.329Z,87.21
2018-05-11T04:12:49.083Z,87.45
2018-05-11T04:15:17.223Z,87.76
2018-05-11T04:17:45.228Z,88.25
2018-05-11T04:20:13.183Z,88.26
2018-05-11T04:22:41.113Z,88.22
2018-05-11T04:25:09.031Z,88.60
2018-05-11T04:27:37.574Z,88.11
2018-05-11T04:30:05.569Z,87.90
2018-05-11T04:32:33.420Z,87.77
2018-05-11T04:35:01.386Z,88.15
2018-05-11T04:37:29.340Z,88.42
2018-05-11T04:39:57.236Z,88.12
2018-05-11T04:42:25.177Z,88.39
2018-05-11T04:44:53.269Z,88.54
2018-05-11T04:47:21.318Z,88.28
2018-05-11T04:49:49.257Z,88.61
2018-05-11T04:52:17.174Z,88.80
2018-05-11T04:54:45.119Z,88.67
2018-05-11T04:57:13.066Z,88.40
2018-05-11T04:59:41.014Z,88.33
2018-05-11T05:02:09.039Z,88.27
2018-05-11T05:04:36.940Z,88.25
2018-05-11T05:07:04.948Z,88.55
2018-05-11T05:09:32.868Z,87.77
2018-05-11T05:12:00.885Z,87.66
2018-05-11T05:14:28.798Z,87.16
2018-05-11T05:16:56.789Z,87.35
2018-05-11T05:19:24.774Z,87.19
2018-05-11T05:21:52.720Z,87.41
2018-05-11T05:24:20.695Z,87.19
2018-05-11T05:26:48.935Z,87.06
2018-05-11T05:29:16.851Z,87.51
2018-05-11T05:31:44.880Z,87.27
2018-05-11T05:34:12.953Z,87.36
2018-05-11T05:36:41.007Z,87.30
2018-05-11T05:39:08.959Z,87.35
2018-05-11T05:41:36.898Z,86.29
2018-05-11T05:44:04.821Z,86.71
2018-05-11T05:46:32.811Z,86.83
2018-05-11T05:49:00.760Z,86.54
2018-05-11T05:51:28.781Z,86.25
2018-05-11T05:53:56.752Z,86.51
2018-05-11T05:56:24.671Z,86.34
2018-05-11T05:58:52.624Z,85.13
2018-05-11T06:01:20.767Z,84.97
2018-05-11T06:03:48.830Z,85.58
2018-05-11T06:06:16.758Z,85.83
2018-05-11T06:08:44.744Z,84.86
2018-05-11T06:11:12.877Z,85.08
2018-05-11T06:13:40.797Z,83.96
2018-05-11T06:16:08.751Z,83.36
2018-05-11T06:18:36.692Z,83.82
2018-05-11T06:21:04.691Z,84.31
2018-05-11T06:23:32.818Z,83.63
2018-05-11T06:26:00.822Z,83.68
2018-05-11T06:28:28.740Z,84.03
2018-05-11T06:30:57.119Z,83.18
2018-05-11T06:33:25.053Z,83.65
2018-05-11T06:35:53.085Z,82.94
2018-05-11T06:38:21.030Z,84.23
2018-05-11T06:40:48.992Z,84.03
2018-05-11T06:43:16.959Z,84.82
2018-05-11T06:45:44.852Z,84.61
2018-05-11T06:48:12.949Z,85.02
2018-05-11T06:50:41.055Z,84.34
2018-05-11T06:53:08.984Z,84.61
2018-05-11T06:55:36.973Z,84.22
2018-05-11T06:58:04.910Z,84.08
2018-05-11T07:00:32.853Z,84.21
2018-05-11T07:03:00.840Z,83.93
2018-05-11T07:05:28.875Z,82.67
2018-05-11T07:07:56.832Z,81.61
2018-05-11T07:10:24.781Z,81.56
2018-05-11T07:12:52.724Z,81.91
2018-05-11T07:15:20.879Z,81.46
2018-05-11T07:17:48.920Z,81.12
2018-05-11T07:20:16.903Z,81.84
2018-05-11T07:22:44.934Z,82.29
2018-05-11T07:25:12.860Z,82.20
2018-05-11T07:27:40.854Z,81.83
2018-05-11T07:30:08.799Z,82.66
2018-05-11T07:32:36.732Z,81.35
2018-05-11T07:35:04.781Z,80.60
2018-05-11T07:37:32.668Z,80.84
2018-05-11T07:40:00.654Z,81.43
2018-05-11T07:42:28.579Z,82.27
2018-05-11T07:44:56.579Z,81.90
2018-05-11T07:47:24.718Z,81.62
2018-05-11T07:49:52.612Z,81.64
2018-05-11T07:52:20.541Z,81.17
2018-05-11T07:54:48.455Z,81.41
2018-05-11T07:57:16.457Z,81.55
2018-05-11T07:59:44.393Z,81.53
2018-05-11T08:02:12.317Z,80.57
2018-05-11T08:04:40.284Z,80.42
2018-05-11T08:07:08.525Z,80.62
2018-05-11T08:09:36.433Z,79.89
2018-05-11T08:12:05.034Z,79.35
2018-05-11T08:14:32.991Z,79.61
2018-05-11T08:17:01.028Z,78.90
2018-05-11T08:19:29.529Z,77.72
2018-05-11T08:21:57.492Z,76.78
2018-05-11T08:24:25.422Z,77.34
2018-05-11T08:26:53.393Z,74.91
2018-05-11T08:29:21.285Z,74.73
2018-05-11T08:31:49.215Z,73.86
2018-05-11T08:34:17.248Z,72.75
2018-05-11T08:36:45.272Z,71.84
2018-05-11T08:39:13.164Z,71.30
2018-05-11T08:41:41.092Z,71.94
2018-05-11T08:44:09.081Z,69.85
2018-05-11T08:46:37.024Z,71.75
2018-05-11T08:49:05.033Z,71.25
2018-05-11T08:51:32.937Z,71.64
2018-05-11T08:54:00.864Z,71.32
2018-05-11T08:56:28.884Z,71.21
2018-05-11T08:58:56.784Z,72.14
2018-05-11T09:01:24.793Z,71.80
2018-05-11T09:03:52.698Z,71.64
2018-05-11T09:06:20.655Z,71.71
2018-05-11T09:08:48.580Z,71.28
2018-05-11T09:11:16.505Z,72.41
2018-05-11T09:13:44.459Z,72.16
2018-05-11T09:16:12.568Z,71.42
2018-05-11T09:18:40.504Z,70.54
2018-05-11T09:21:08.530Z,69.40
2018-05-11T09:23:36.457Z,69.47
2018-05-11T09:26:04.360Z,67.82
2018-05-11T09:28:32.292Z,63.95
2018-05-11T09:31:00.222Z,62.28
2018-05-11T09:33:28.182Z,62.71
2018-05-11T09:35:56.124Z,60.84
2018-05-11T09:38:24.133Z,62.83
2018-05-11T09:40:52.022Z,63.74
2018-05-11T09:43:19.962Z,63.24
2018-05-11T09:45:47.907Z,62.41
2018-05-11T09:48:15.856Z,62.12
2018-05-11T09:50:43.828Z,63.60
2018-05-11T09:53:11.748Z,61.44
2018-05-11T09:55:39.695Z,61.50
2018-05-11T09:58:07.646Z,60.93
2018-05-11T10:00:35.684Z,60.54
2018-05-11T10:03:03.592Z,63.15
2018-05-11T10:05:31.517Z,63.57
2018-05-11T10:07:59.471Z,63.82
2018-05-11T10:10:27.384Z,62.50
2018-05-11T10:12:55.303Z,63.15
2018-05-11T10:15:23.279Z,61.96
2018-05-11T10:17:51.177Z,60.62
2018-05-11T10:20:19.168Z,59.66
2018-05-11T10:22:47.095Z,57.16
2018-05-11T10:25:15.915Z,57.04
2018-05-11T10:27:43.839Z,56.57
2018-05-11T10:30:11.772Z,58.03
2018-05-11T10:32:39.786Z,58.67
2018-05-11T10:35:07.761Z,58.92
2018-05-11T10:37:35.775Z,59.46
2018-05-11T10:40:04.296Z,58.09
2018-05-11T10:42:32.236Z,57.13
2018-05-11T10:45:00.153Z,58.30
2018-05-11T10:47:28.081Z,58.54
2018-05-11T10:49:55.985Z,58.48
2018-05-11T10:52:23.953Z,57.22
2018-05-11T10:54:51.859Z,55.49
2018-05-11T10:57:19.813Z,55.84
2018-05-11T10:59:47.730Z,53.97
2018-05-11T11:02:15.814Z,53.56
2018-05-11T11:04:43.657Z,52.99
2018-05-11T11:07:11.695Z,53.42
2018-05-11T11:09:39.608Z,52.89
2018-05-11T11:12:07.609Z,51.70
2018-05-11T11:14:35.523Z,52.54
2018-05-11T11:17:03.469Z,52.41
2018-05-11T11:19:31.376Z,51.38
2018-05-11T11:21:59.275Z,50.55
2018-05-11T11:24:27.204Z,50.59
2018-05-11T11:26:55.102Z,51.20
2018-05-11T11:29:23.043Z,52.76
2018-05-11T11:31:50.946Z,49.88
2018-05-11T11:34:18.884Z,51.52
2018-05-11T11:36:46.740Z,50.86
2018-05-11T11:39:14.690Z,52.31
2018-05-11T11:41:42.595Z,50.29
2018-05-11T11:44:10.516Z,51.69
2018-05-11T11:46:38.460Z,49.37
2018-05-11T11:49:06.372Z,48.92
2018-05-11T11:51:34.294Z,50.07
2018-05-11T11:54:02.249Z,49.10
2018-05-11T11:56:30.265Z,48.47
2018-05-11T11:58:58.130Z,48.52
2018-05-11T12:01:26.033Z,49.21
2018-05-11T12:03:53.997Z,48.15
2018-05-11T12:06:21.935Z,48.14
2018-05-11T12:08:49.847Z,49.03
2018-05-11T12:11:17.752Z,48.76
2018-05-11T12:13:45.773Z,49.10
2018-05-11T12:16:13.776Z,48.15
2018-05-11T12:18:41.684Z,48.43
2018-05-11T12:21:09.609Z,48.18
2018-05-11T12:23:37.544Z,47.86
2018-05-11T12:26:05.468Z,46.16
2018-05-11T12:28:33.369Z,46.22
2018-05-11T12:31:01.350Z,47.48
2018-05-11T12:33:29.243Z,47.15
2018-05-11T12:35:57.159Z,46.91
2018-05-11T12:38:25.127Z,46.50
2018-05-11T12:40:53.037Z,44.61
2018-05-11T12:43:21.043Z,45.07
2018-05-11T12:45:48.962Z,45.23
2018-05-11T12:48:16.970Z,46.69
2018-05-11T12:50:44.896Z,46.30
2018-05-11T12:53:12.825Z,46.43
2018-05-11T12:55:40.811Z,45.93
2018-05-11T12:58:08.746Z,45.12
2018-05-11T13:00:36.654Z,44.01
2018-05-11T13:03:04.574Z,45.83
2018-05-11T13:05:32.503Z,46.10
2018-05-11T13:08:00.469Z,45.88
2018-05-11T13:10:28.368Z,44.66
2018-05-11T13:12:56.478Z,45.07
2018-05-11T13:15:24.330Z,44.90
2018-05-11T13:17:52.271Z,44.73
2018-05-11T13:20:20.200Z,44.66
2018-05-11T13:22:48.137Z,45.29
2018-05-11T13:25:16.047Z,46.19
2018-05-11T13:27:44.009Z,46.00
2018-05-11T13:30:12.013Z,46.20
2018-05-11T13:32:39.940Z,46.78
2018-05-11T13:35:07.916Z,47.00
2018-05-11T13:37:35.860Z,45.54
2018-05-11T13:40:03.813Z,47.03
2018-05-11T13:42:31.869Z,46.31
2018-05-11T13:44:59.775Z,45.70
2018-05-11T13:47:27.715Z,46.60
2018-05-11T13:49:55.640Z,45.63
2018-05-11T13:52:23.607Z,44.80
2018-05-11T13:54:51.503Z,46.08
2018-05-11T13:57:19.478Z,46.79
2018-05-11T13:59:47.459Z,46.16
2018-05-11T14:02:15.356Z,46.74
2018-05-11T14:04:43.442Z,45.30
2018-05-11T14:07:11.355Z,45.48
2018-05-11T14:09:39.276Z,46.31
2018-05-11T14:12:07.192Z,45.90
2018-05-11T14:14:35.117Z,46.04
2018-05-11T14:17:03.024Z,46.18
2018-05-11T14:19:30.947Z,45.77
2018-05-11T14:21:58.839Z,46.08
2018-05-11T14:24:26.763Z,45.72
2018-05-11T14:26:54.750Z,46.81
2018-05-11T14:29:22.660Z,47.15
2018-05-11T14:31:50.659Z,46.67
2018-05-11T14:34:18.481Z,46.86
2018-05-11T14:36:46.399Z,46.54
2018-05-11T14:39:14.453Z,46.80
2018-05-11T14:41:42.287Z,46.89
2018-05-11T14:44:10.186Z,45.74
2018-05-11T14:46:38.156Z,46.89
2018-05-11T14:49:06.083Z,47.84
2018-05-11T14:51:34.015Z,48.63
2018-05-11T14:54:01.917Z,47.34
2018-05-11T14:56:29.843Z,47.49
2018-05-11T14:58:57.769Z,47.68
2018-05-11T15:01:25.777Z,47.96
2018-05-11T15:03:53.674Z,47.62
2018-05-11T15:06:21.580Z,47.25
2018-05-11T15:08:49.589Z,46.96
2018-05-11T15:11:17.503Z,47.91
2018-05-11T15:13:45.447Z,47.54
2018-05-11T15:16:13.353Z,47.89
2018-05-11T15:18:41.289Z,49.40
2018-05-11T15:21:09.190Z,49.08
2018-05-11T15:23:37.135Z,48.18
2018-05-11T15:26:05.055Z,47.71
2018-05-11T15:28:32.974Z,47.13
2018-05-11T15:31:00.923Z,46.00
2018-05-11T15:33:28.815Z,45.51
2018-05-11T15:35:56.761Z,45.60
2018-05-11T15:38:24.704Z,45.64
2018-05-11T15:40:52.653Z,46.05
2018-05-11T15:43:20.599Z,46.43
2018-05-11T15:48:10.739Z,46.15
2018-05-11T15:50:38.635Z,47.12
2018-05-11T15:53:06.574Z,47.05
2018-05-11T15:55:34.514Z,47.06
2018-05-11T15:58:02.408Z,47.91
2018-05-11T16:00:30.397Z,48.53
2018-05-11T16:02:58.295Z,49.45
2018-05-11T16:05:26.244Z,50.05
2018-05-11T16:07:54.167Z,50.23
2018-05-11T16:10:22.056Z,50.92
2018-05-11T16:12:50.092Z,51.71
2018-05-11T16:15:17.923Z,51.46
2018-05-11T16:17:45.852Z,51.89
2018-05-11T16:20:13.763Z,52.26
2018-05-11T16:22:41.700Z,52.63
2018-05-11T16:25:09.618Z,52.50
2018-05-11T16:27:37.537Z,53.01
2018-05-11T16:30:05.450Z,53.28
2018-05-11T16:32:33.356Z,54.55
2018-05-11T16:35:01.282Z,55.37
2018-05-11T16:37:29.200Z,56.22
2018-05-11T16:39:57.122Z,56.45
2018-05-11T16:42:25.051Z,55.97
2018-05-11T16:44:52.968Z,56.83
2018-05-11T16:47:20.894Z,55.59
2018-05-11T16:49:48.812Z,55.56
2018-05-11T16:52:16.735Z,55.46
2018-05-11T16:54:44.676Z,55.38
2018-05-11T16:57:12.574Z,54.95
2018-05-11T16:59:40.713Z,55.94
2018-05-11T17:02:08.627Z,55.45
2018-05-11T17:04:36.610Z,55.63
2018-05-11T17:07:04.611Z,56.26
2018-05-11T17:09:32.533Z,56.49
2018-05-11T17:12:00.488Z,56.62
2018-05-11T17:14:28.440Z,57.13
2018-05-11T17:16:56.392Z,57.13
2018-05-11T17:19:24.326Z,56.26
2018-05-11T17:21:52.226Z,56.57
2018-05-11T17:24:20.167Z,56.72
2018-05-11T17:26:48.044Z,56.55
2018-05-11T17:29:15.980Z,56.00
2018-05-11T17:31:43.937Z,56.98
2018-05-11T17:34:11.810Z,56.63
2018-05-11T17:36:39.741Z,58.06
2018-05-11T17:39:07.664Z,61.70
2018-05-11T17:41:35.682Z,61.36
2018-05-11T17:44:03.500Z,62.18
2018-05-11T17:46:31.416Z,61.70
2018-05-11T17:48:59.365Z,62.60
2018-05-11T17:51:27.282Z,64.42
2018-05-11T17:53:55.334Z,63.47
2018-05-11T17:56:23.264Z,63.40
2018-05-11T17:58:51.172Z,62.09
2018-05-11T18:01:19.268Z,60.99
2018-05-11T18:03:47.179Z,63.02
2018-05-11T18:06:15.172Z,62.34
2018-05-11T18:08:43.103Z,63.60
2018-05-11T18:11:11.026Z,63.59
2018-05-11T18:13:39.754Z,63.87
2018-05-11T18:16:08.018Z,65.11
2018-05-11T18:18:35.926Z,63.02
2018-05-11T18:21:04.018Z,65.46
2018-05-11T18:23:31.979Z,62.07
2018-05-11T18:25:59.928Z,61.86
2018-05-11T18:28:27.857Z,64.80
2018-05-11T18:30:56.069Z,64.05
2018-05-11T18:33:24.320Z,62.53
2018-05-11T18:35:52.283Z,62.04
2018-05-11T18:38:20.324Z,63.90
2018-05-11T18:40:48.415Z,63.27
2018-05-11T18:43:16.387Z,64.53
2018-05-11T18:45:44.524Z,62.82
2018-05-11T18:48:12.540Z,64.20
2018-05-11T18:50:40.462Z,62.69
2018-05-11T18:53:08.724Z,61.98
2018-05-11T18:55:36.339Z,62.70
2018-05-11T18:58:04.297Z,61.94
2018-05-11T19:00:32.245Z,65.03
2018-05-11T19:03:00.167Z,64.11
2018-05-11T19:05:28.079Z,65.43
2018-05-11T19:07:56.014Z,65.42
2018-05-11T19:10:23.915Z,62.74
2018-05-11T19:12:51.831Z,63.50
2018-05-11T19:15:19.784Z,63.14
2018-05-11T19:17:47.725Z,63.35
2018-05-11T19:20:15.660Z,62.47
2018-05-11T19:22:43.674Z,63.04
2018-05-11T19:25:11.654Z,65.98
2018-05-11T19:27:39.559Z,64.95
2018-05-11T19:30:07.468Z,64.75
2018-05-11T19:32:35.498Z,64.79
2018-05-11T19:35:03.389Z,65.76
2018-05-11T19:37:31.365Z,64.92
2018-05-11T19:39:59.340Z,66.52
2018-05-11T19:42:27.257Z,64.93
2018-05-11T19:44:55.173Z,63.02
2018-05-11T19:47:23.110Z,64.27
2018-05-11T19:49:51.431Z,64.76
2018-05-11T19:52:19.385Z,64.13
2018-05-11T19:54:47.366Z,65.35
2018-05-11T19:57:15.372Z,65.36
2018-05-11T19:59:43.224Z,64.47
2018-05-11T20:02:11.133Z,65.99
2018-05-11T20:04:39.138Z,64.83
2018-05-11T20:07:06.993Z,63.10
2018-05-11T20:09:34.875Z,64.77
2018-05-11T20:12:02.799Z,63.89
2018-05-11T20:14:30.700Z,65.51
2018-05-11T20:16:58.636Z,64.33
2018-05-11T20:19:26.543Z,66.14
2018-05-11T20:21:54.542Z,65.03
2018-05-11T20:24:22.437Z,66.80
2018-05-11T20:26:50.464Z,66.04
2018-05-11T20:29:18.379Z,65.96
2018-05-11T20:31:46.309Z,65.55
2018-05-11T20:34:14.216Z,65.59
2018-05-11T20:36:42.138Z,66.32
2018-05-11T20:39:10.089Z,66.57
2018-05-11T20:41:38.218Z,66.03
2018-05-11T20:44:06.057Z,66.20
2018-05-11T20:46:33.960Z,69.64
2018-05-11T20:49:01.949Z,67.69
2018-05-11T20:51:30.009Z,68.24
2018-05-11T20:53:57.897Z,68.54
2018-05-11T20:56:25.975Z,68.09
2018-05-11T20:58:54.016Z,69.65
2018-05-11T21:01:22.006Z,68.36
2018-05-11T21:03:49.963Z,68.89
2018-05-11T21:06:17.877Z,69.23
2018-05-11T21:08:45.787Z,70.01
2018-05-11T21:11:13.824Z,71.22
2018-05-11T21:13:41.736Z,69.39
2018-05-11T21:16:09.659Z,69.36
2018-05-11T21:18:37.635Z,69.86
2018-05-11T21:21:05.708Z,69.68
2018-05-11T21:23:33.698Z,69.84
2018-05-11T21:26:01.584Z,70.75
2018-05-11T21:28:29.496Z,71.10
2018-05-11T21:30:57.481Z,72.73
2018-05-11T21:33:25.491Z,73.37
2018-05-11T21:35:53.431Z,71.55
2018-05-11T21:38:21.349Z,71.69
2018-05-11T21:40:49.387Z,70.51
2018-05-11T21:43:18.106Z,70.58
2018-05-11T21:45:46.087Z,71.10
2018-05-11T21:48:14.017Z,71.22
2018-05-11T21:50:42.087Z,71.50
2018-05-11T21:53:09.915Z,71.96
2018-05-11T21:55:37.918Z,71.56
2018-05-11T21:58:05.833Z,72.32
2018-05-11T22:00:34.059Z,72.60
2018-05-11T22:03:02.163Z,72.89
2018-05-11T22:05:30.070Z,72.77
2018-05-11T22:07:58.012Z,73.47
2018-05-11T22:10:25.924Z,74.11
2018-05-11T22:12:53.916Z,74.45
2018-05-11T22:15:21.818Z,74.85
2018-05-11T22:17:49.885Z,75.39
2018-05-11T22:20:17.805Z,75.24
2018-05-11T22:22:45.724Z,75.60
2018-05-11T22:25:13.641Z,75.53
2018-05-11T22:27:41.756Z,75.99
2018-05-11T22:30:09.802Z,77.38
2018-05-11T22:32:37.784Z,77.72
2018-05-11T22:35:05.734Z,78.05
2018-05-11T22:37:33.701Z,77.50
2018-05-11T22:40:01.670Z,77.79
2018-05-11T22:42:29.620Z,78.43
2018-05-11T22:44:57.533Z,78.32
2018-05-11T22:47:25.473Z,78.59
2018-05-11T22:49:54.064Z,78.83
2018-05-11T22:52:22.025Z,78.83
2018-05-11T22:54:50.033Z,78.99
2018-05-11T22:57:18.064Z,78.93
2018-05-11T22:59:46.010Z,78.14
2018-05-11T23:02:14.628Z,78.09
2018-05-11T23:04:43.055Z,78.75
2018-05-11T23:07:11.126Z,78.84
2018-05-11T23:09:39.158Z,78.80
2018-05-11T23:12:07.154Z,79.03
2018-05-11T23:14:35.179Z,78.30
2018-05-11T23:17:03.175Z,78.54
2018-05-11T23:19:31.096Z,78.22
2018-05-11T23:21:59.036Z,78.22
2018-05-11T23:24:26.959Z,78.02
2018-05-11T23:26:54.920Z,78.80
2018-05-11T23:29:22.923Z,78.79
2018-05-11T23:31:50.809Z,79.15
2018-05-11T23:34:18.751Z,78.88
2018-05-11T23:36:46.720Z,78.37
2018-05-11T23:39:14.664Z,78.59
2018-05-11T23:41:43.879Z,79.58
2018-05-11T23:44:11.825Z,78.88
2018-05-11T23:46:39.905Z,78.29
2018-05-11T23:49:07.892Z,77.11
2018-05-11T23:51:35.811Z,77.12
2018-05-11T23:54:03.760Z,76.47
2018-05-11T23:56:31.688Z,76.89
2018-05-11T23:58:59.611Z,77.31
